.
WxDataArchive / Data Records for 2012-04-29
2012-04-28 April 2012 2012-04-30

Data Records for Sunday, 29 April 2012

Time	Temp	Chill	HIndex	Humid	Dewpt	 Wind 	HiWind	WindDir	Rain 	Barom 
-----	----	-----	------	-----	-----	------	------	-------	-----	----- 
00:00	39.9	39.9	39.9	84	35.5	0	1	90	0.00	30.228 
00:05	39.8	39.8	39.8	84	35.4	0	2	90	0.00	30.228 
00:10	39.6	39.6	39.6	85	35.5	0	2	90	0.00	30.228 
00:15	39.5	39.5	39.5	85	35.4	0	2	90	0.00	30.225 
00:20	39.5	39.5	39.5	85	35.4	0	3	90	0.00	30.225 
00:25	39.3	39.3	39.3	85	35.2	0	1	90	0.00	30.225 
00:30	39.3	39.3	39.3	85	35.2	0	1	90	0.00	30.228 
00:35	39.2	39.2	39.2	85	35.1	0	1	90	0.00	30.228 
00:40	39.1	39.1	39.1	85	35.0	0	1	90	0.00	30.228 
00:45	39.1	39.1	39.1	85	35.0	0	1	90	0.00	30.227 
00:50	38.9	38.9	38.9	85	34.8	0	1	90	0.00	30.227 
00:55	38.8	38.8	38.8	85	34.7	0	1	90	0.00	30.227 
01:00	38.6	38.6	38.6	85	34.5	0	0	---	0.00	30.236 
01:05	38.5	38.5	38.5	85	34.4	0	1	90	0.00	30.236 
01:10	38.3	38.3	38.3	85	34.2	0	1	90	0.00	30.236 
01:15	38.2	38.2	38.2	86	34.4	0	1	90	0.00	30.227 
01:20	38.2	38.2	38.2	86	34.4	0	2	90	0.00	30.227 
01:25	38.2	38.2	38.2	85	34.1	0	2	90	0.00	30.227 
01:30	38.2	38.2	38.2	85	34.1	0	2	90	0.00	30.228 
01:35	38.3	38.3	38.3	85	34.2	1	3	90	0.00	30.228 
01:40	38.3	38.3	38.3	84	33.9	1	2	90	0.00	30.228 
01:45	38.3	38.3	38.3	84	33.9	1	2	90	0.00	30.227 
01:50	38.2	38.2	38.2	83	33.5	1	3	90	0.00	30.227 
01:55	38.2	38.2	38.2	83	33.5	0	2	90	0.00	30.227 
02:00	38.2	38.2	38.2	83	33.5	0	2	90	0.00	30.227 
02:05	38.0	38.0	38.0	83	33.3	0	1	90	0.00	30.227 
02:10	37.9	37.9	37.9	83	33.2	0	1	90	0.00	30.227 
02:15	37.9	37.9	37.9	83	33.2	0	1	90	0.00	30.222 
02:20	37.8	37.8	37.8	83	33.1	0	3	90	0.00	30.222 
02:25	37.8	37.8	37.8	82	32.8	0	1	90	0.00	30.222 
02:30	37.8	37.8	37.8	82	32.8	0	2	90	0.00	30.227 
02:35	37.6	37.6	37.6	81	32.3	0	1	90	0.00	30.227 
02:40	37.6	37.6	37.6	81	32.3	0	1	90	0.00	30.227 
02:45	37.5	37.5	37.5	81	32.2	0	1	90	0.00	30.227 
02:50	37.3	37.3	37.3	81	32.0	0	1	90	0.00	30.227 
02:55	37.3	37.3	37.3	81	32.0	0	2	90	0.00	30.227 
03:00	37.3	37.3	37.3	81	32.0	0	0	---	0.00	30.229 
03:05	37.2	37.2	37.2	81	31.9	0	0	---	0.00	30.229 
03:10	37.2	37.2	37.2	81	31.9	0	1	90	0.00	30.229 
03:15	37.2	37.2	37.2	81	31.9	0	1	90	0.00	30.223 
03:20	37.2	37.2	37.2	81	31.9	0	2	90	0.00	30.223 
03:25	37.0	37.0	37.0	82	32.0	0	1	90	0.00	30.223 
03:30	37.0	37.0	37.0	82	32.0	1	3	90	0.00	30.219 
03:35	37.2	37.2	37.2	82	32.2	0	2	90	0.00	30.219 
03:40	37.2	37.2	37.2	82	32.2	0	3	90	0.00	30.219 
03:45	37.2	37.2	37.2	82	32.2	0	2	90	0.00	30.222 
03:50	37.2	37.2	37.2	82	32.2	0	2	90	0.00	30.222 
03:55	37.2	37.2	37.2	82	32.2	1	3	90	0.00	30.222 
04:00	37.2	37.2	37.2	81	31.9	1	4	90	0.00	30.224 
04:05	37.2	37.2	37.2	81	31.9	1	3	90	0.00	30.224 
04:10	37.2	37.2	37.2	81	31.9	0	3	90	0.00	30.224 
04:15	37.2	37.2	37.2	81	31.9	1	3	90	0.00	30.227 
04:20	37.0	37.0	37.0	81	31.7	1	3	90	0.00	30.227 
04:25	37.0	37.0	37.0	81	31.7	1	4	90	0.00	30.227 
04:30	37.0	37.0	37.0	81	31.7	1	5	90	0.00	30.227 
04:35	37.0	37.0	37.0	81	31.7	1	3	90	0.00	30.227 
04:40	37.0	37.0	37.0	81	31.7	1	3	90	0.00	30.227 
04:45	37.0	37.0	37.0	81	31.7	1	3	90	0.00	30.228 
04:50	37.0	37.0	37.0	81	31.7	1	3	45	0.00	30.228 
04:55	37.0	37.0	37.0	80	31.4	1	6	90	0.00	30.228 
05:00	37.0	37.0	37.0	80	31.4	1	4	90	0.00	30.238 
05:05	36.9	36.9	36.9	80	31.3	1	4	90	0.00	30.238 
05:10	36.9	36.9	36.9	80	31.3	0	4	90	0.00	30.238 
05:15	36.8	36.8	36.8	80	31.2	0	3	112	0.00	30.240 
05:20	36.8	36.8	36.8	80	31.2	0	4	112	0.00	30.240 
05:25	36.8	36.8	36.8	80	31.2	0	1	112	0.00	30.240 
05:30	36.6	36.6	36.6	80	31.0	0	2	112	0.00	30.240 
05:35	36.6	36.6	36.6	80	31.0	0	1	112	0.00	30.240 
05:40	36.6	36.6	36.6	80	31.0	1	4	112	0.00	30.240 
05:45	36.5	36.5	36.5	80	30.9	0	1	112	0.00	30.246 
05:50	36.5	36.5	36.5	80	30.9	0	2	112	0.00	30.246 
05:55	36.3	36.3	36.3	80	30.7	0	0	---	0.00	30.246 
06:00	36.2	36.2	36.2	80	30.6	0	1	112	0.00	30.245 
06:05	36.0	36.0	36.0	80	30.4	0	2	112	0.00	30.245 
06:10	35.9	35.9	35.9	81	30.6	0	1	112	0.00	30.245 
06:15	35.8	35.8	35.8	81	30.6	0	0	---	0.00	30.257 
06:20	35.8	35.8	35.8	81	30.6	0	1	112	0.00	30.257 
06:25	35.6	35.6	35.6	81	30.4	0	0	---	0.00	30.257 
06:30	35.5	35.5	35.5	81	30.3	0	0	---	0.00	30.266 
06:35	35.3	35.3	35.3	82	30.4	0	0	---	0.00	30.266 
06:40	35.2	35.2	35.2	82	30.3	0	0	---	0.00	30.266 
06:45	35.2	35.2	35.2	83	30.6	0	0	---	0.00	30.270 
06:50	35.2	35.2	35.2	83	30.6	0	2	112	0.00	30.270 
06:55	35.3	35.3	35.3	83	30.7	0	0	---	0.00	30.270 
07:00	35.3	35.3	35.3	83	30.7	0	0	---	0.00	30.274 
07:05	35.5	35.5	35.5	83	30.9	0	2	112	0.00	30.274 
07:10	35.6	35.6	35.6	83	31.0	0	0	---	0.00	30.274 
07:15	35.8	35.8	35.8	83	31.2	0	1	112	0.00	30.280 
07:20	35.9	35.9	35.9	83	31.2	0	1	112	0.00	30.280 
07:25	36.2	36.2	36.2	82	31.2	0	3	112	0.00	30.280 
07:30	36.5	36.5	36.5	82	31.5	0	3	112	0.00	30.279 
07:35	36.8	36.8	36.8	81	31.5	1	4	112	0.00	30.279 
07:40	37.2	37.2	37.2	80	31.6	0	3	112	0.00	30.279 
07:45	37.8	37.8	37.8	79	31.9	1	3	112	0.00	30.281 
07:50	38.2	38.2	38.2	78	32.0	1	5	112	0.00	30.281 
07:55	38.8	38.8	38.8	77	32.2	2	4	68	0.00	30.281 
08:00	39.1	39.1	39.1	77	32.5	2	5	112	0.00	30.268 
08:05	39.5	39.5	39.5	76	32.6	1	4	112	0.00	30.268 
08:10	39.9	39.9	39.9	75	32.6	3	9	90	0.00	30.268 
08:15	40.5	40.5	40.5	74	32.9	1	4	90	0.00	30.282 
08:20	41.1	41.1	41.1	73	33.1	2	6	90	0.00	30.282 
08:25	41.3	41.3	41.3	72	33.0	3	7	90	0.00	30.282 
08:30	41.5	39.1	41.5	73	33.5	4	9	90	0.00	30.274 
08:35	41.8	41.8	41.8	73	33.8	3	7	90	0.00	30.274 
08:40	42.1	42.1	42.1	73	34.1	2	5	112	0.00	30.274 
08:45	42.6	42.6	42.6	72	34.2	2	4	90	0.00	30.271 
08:50	43.1	43.1	43.1	71	34.3	2	5	68	0.00	30.271 
08:55	43.5	43.5	43.5	71	34.7	2	5	90	0.00	30.271 
09:00	43.5	43.5	43.5	71	34.7	3	7	90	0.00	30.279 
09:05	43.9	43.9	43.9	72	35.5	2	5	90	0.00	30.279 
09:10	44.2	44.2	44.2	70	35.0	3	9	90	0.00	30.279 
09:15	44.3	44.3	44.3	70	35.1	2	6	112	0.00	30.287 
09:20	44.3	44.3	44.3	68	34.4	3	9	112	0.00	30.287 
09:25	44.6	44.6	44.6	68	34.7	3	9	90	0.00	30.287 
09:30	45.2	45.2	45.2	67	34.9	2	4	90	0.00	30.294 
09:35	46.0	46.0	46.0	66	35.3	2	7	112	0.00	30.294 
09:40	46.4	46.4	46.4	65	35.3	2	5	90	0.00	30.294 
09:45	46.5	46.5	46.5	63	34.6	3	9	90	0.00	30.284 
09:50	47.1	47.1	47.1	62	34.8	3	9	90	0.00	30.284 
09:55	47.7	47.7	47.7	63	35.7	2	7	90	0.00	30.284 
10:00	48.0	46.6	48.0	58	33.9	4	9	90	0.00	30.274 
10:05	48.3	48.3	48.3	61	35.5	3	7	112	0.00	30.274 
10:10	48.6	47.3	48.6	57	34.1	4	9	90	0.00	30.274 
10:15	48.9	47.6	48.9	58	34.8	4	9	90	0.00	30.270 
10:20	49.2	47.9	49.2	56	34.2	4	7	90	0.00	30.270 
10:25	49.5	48.3	49.5	56	34.5	4	9	90	0.00	30.270 
10:30	49.6	47.7	49.6	57	35.0	5	10	90	0.00	30.267 
10:35	50.1	50.1	50.1	58	35.9	4	7	112	0.00	30.267 
10:40	50.5	50.5	50.5	57	35.8	3	6	90	0.00	30.267 
10:45	51.0	51.0	51.0	57	36.3	3	7	90	0.00	30.282 
10:50	51.3	51.3	51.3	57	36.6	3	7	112	0.00	30.282 
10:55	51.7	51.7	51.7	58	37.4	3	6	90	0.00	30.282 
11:00	52.3	52.3	52.3	58	38.0	2	7	112	0.00	30.284 
11:05	52.9	52.9	52.9	55	37.2	3	7	90	0.00	30.284 
11:10	53.1	53.1	53.1	55	37.4	3	7	90	0.00	30.284 
11:15	53.2	53.2	53.2	55	37.5	3	6	112	0.00	30.290 
11:20	53.5	53.5	53.5	55	37.7	3	8	90	0.00	30.290 
11:25	53.3	53.3	53.3	55	37.5	4	10	90	0.00	30.290 
11:30	53.8	53.8	53.8	56	38.5	2	7	112	0.00	30.281 
11:35	53.9	53.9	53.9	56	38.6	3	7	112	0.00	30.281 
11:40	53.9	53.9	53.9	55	38.1	4	7	90	0.00	30.281 
11:45	54.4	54.4	54.4	57	39.5	3	7	90	0.00	30.280 
11:50	54.8	54.8	54.8	53	38.0	4	8	90	0.00	30.280 
11:55	55.3	55.3	55.3	53	38.5	4	10	90	0.00	30.280 
12:00	55.7	55.7	55.7	51	37.9	3	10	68	0.00	30.286 
12:05	56.2	56.2	56.2	51	38.3	4	7	112	0.00	30.286 
12:10	56.6	56.6	56.6	50	38.2	2	6	90	0.00	30.286 
12:15	56.5	56.5	56.5	50	38.1	4	12	90	0.00	30.292 
12:20	56.5	56.5	56.5	51	38.6	3	10	90	0.00	30.292 
12:25	56.6	56.6	56.6	50	38.2	4	11	112	0.00	30.292 
12:30	56.6	56.6	56.6	51	38.7	4	9	112	0.00	30.289 
12:35	56.9	56.9	56.9	50	38.5	4	11	90	0.00	30.289 
12:40	57.5	57.5	57.5	49	38.5	3	6	90	0.00	30.289 
12:45	57.6	57.6	57.6	49	38.6	4	7	112	0.00	30.289 
12:50	57.8	57.8	57.8	49	38.8	4	7	112	0.00	30.289 
12:55	58.1	58.1	58.1	49	39.0	3	6	90	0.00	30.289 
13:00	58.4	58.4	58.4	50	39.8	4	14	112	0.00	30.281 
13:05	58.4	58.4	58.4	50	39.8	3	7	112	0.00	30.281 
13:10	58.6	58.6	58.6	49	39.5	3	7	112	0.00	30.281 
13:15	58.9	58.9	58.9	49	39.8	3	7	90	0.00	30.275 
13:20	58.7	58.7	58.7	48	39.1	5	11	112	0.00	30.275 
13:25	58.6	58.6	58.6	47	38.4	4	9	112	0.00	30.275 
13:30	58.9	58.9	58.9	47	38.7	4	10	90	0.00	30.261 
13:35	59.0	59.0	59.0	46	38.2	4	7	112	0.00	30.261 
13:40	59.5	59.5	59.5	47	39.3	3	10	90	0.00	30.261 
13:45	59.5	59.5	59.5	49	40.3	4	10	90	0.00	30.260 
13:50	59.8	59.8	59.8	46	39.0	3	9	90	0.00	30.260 
13:55	59.9	59.9	59.9	45	38.5	4	10	112	0.00	30.260 
14:00	60.1	60.1	60.1	45	38.7	5	11	90	0.00	30.259 
14:05	60.2	60.2	60.2	45	38.8	3	7	90	0.00	30.259 
14:10	60.4	60.4	60.4	43	37.8	4	7	112	0.00	30.259 
14:15	60.7	60.7	60.7	44	38.7	3	9	90	0.00	30.251 
14:20	60.5	60.5	60.5	42	37.3	5	13	112	0.00	30.251 
14:25	60.5	60.5	60.5	41	36.7	3	7	90	0.00	30.251 
14:30	60.7	60.7	60.7	41	36.9	4	8	90	0.00	30.243 
14:35	61.0	61.0	61.0	42	37.7	4	11	112	0.00	30.243 
14:40	61.6	61.6	61.6	42	38.3	3	8	68	0.00	30.243 
14:45	62.1	62.1	62.1	38	36.2	3	9	90	0.00	30.231 
14:50	62.0	62.0	62.0	38	36.1	4	9	90	0.00	30.231 
14:55	62.0	62.0	62.0	35	34.0	4	9	90	0.00	30.231 
15:00	61.8	61.8	61.8	36	34.6	4	10	90	0.00	30.227 
15:05	61.6	61.6	61.6	38	35.7	3	11	90	0.00	30.227 
15:10	61.5	61.5	61.5	34	32.9	4	10	112	0.00	30.227 
15:15	61.8	61.8	61.8	36	34.6	3	9	90	0.00	30.213 
15:20	61.8	61.8	61.8	35	33.9	5	10	90	0.00	30.213 
15:25	61.8	61.8	61.8	32	31.6	5	12	90	0.00	30.213 
15:30	61.8	61.8	61.8	31	30.8	4	11	90	0.00	30.211 
15:35	62.1	62.1	62.1	32	31.9	3	6	90	0.00	30.211 
15:40	62.6	62.6	62.6	30	30.7	4	12	90	0.00	30.211 
15:45	62.9	62.9	62.9	31	31.8	4	9	90	0.00	30.206 
15:50	63.1	63.1	63.1	32	32.8	4	11	90	0.00	30.206 
15:55	63.2	63.2	63.2	28	29.6	5	14	112	0.00	30.206 
16:00	63.2	63.2	63.2	29	30.4	5	16	90	0.00	30.197 
16:05	63.1	63.1	63.1	28	29.5	5	13	112	0.00	30.197 
16:10	63.1	63.1	63.1	31	32.0	5	13	90	0.00	30.197 
16:15	63.1	63.1	63.1	28	29.5	5	15	112	0.00	30.189 
16:20	63.2	63.2	63.2	32	32.9	4	10	112	0.00	30.189 
16:25	63.2	63.2	63.2	27	28.7	6	19	112	0.00	30.189 
16:30	63.4	63.4	63.4	29	30.6	4	10	112	0.00	30.180 
16:35	63.5	63.5	63.5	28	29.8	6	14	90	0.00	30.180 
16:40	63.5	63.5	63.5	28	29.8	5	13	112	0.00	30.180 
16:45	63.5	63.5	63.5	27	28.9	5	13	112	0.00	30.180 
16:50	63.9	63.9	63.9	27	29.3	4	12	112	0.00	30.180 
16:55	63.7	63.7	63.7	27	29.1	4	11	112	0.00	30.180 
17:00	63.5	63.5	63.5	26	28.0	4	10	90	0.00	30.181 
17:05	63.7	63.7	63.7	27	29.1	3	6	112	0.00	30.181 
17:10	63.7	63.7	63.7	27	29.1	4	10	90	0.00	30.181 
17:15	63.7	63.7	63.7	26	28.2	4	10	90	0.00	30.192 
17:20	63.9	63.9	63.9	26	28.3	4	10	112	0.00	30.192 
17:25	63.7	63.7	63.7	28	30.0	4	7	90	0.00	30.192 
17:30	63.5	63.5	63.5	28	29.8	3	7	90	0.00	30.195 
17:35	63.2	63.2	63.2	26	27.7	5	12	90	0.00	30.195 
17:40	62.9	62.9	62.9	28	29.3	3	8	90	0.00	30.195 
17:45	62.7	62.7	62.7	27	28.2	4	10	112	0.00	30.196 
17:50	62.7	62.7	62.7	29	30.0	4	9	90	0.00	30.196 
17:55	62.7	62.7	62.7	30	30.8	3	6	90	0.00	30.196 
18:00	62.7	62.7	62.7	28	29.1	3	7	90	0.00	30.198 
18:05	62.6	62.6	62.6	29	29.9	4	10	90	0.00	30.198 
18:10	62.4	62.4	62.4	31	31.4	5	11	90	0.00	30.198 
18:15	62.3	62.3	62.3	32	32.1	4	12	90	0.00	30.183 
18:20	62.3	62.3	62.3	32	32.1	3	10	90	0.00	30.183 
18:25	62.3	62.3	62.3	31	31.3	4	10	90	0.00	30.183 
18:30	62.4	62.4	62.4	33	32.9	3	9	90	0.00	30.184 
18:35	62.4	62.4	62.4	33	32.9	4	8	90	0.00	30.184 
18:40	62.3	62.3	62.3	33	32.8	4	9	90	0.00	30.184 
18:45	62.3	62.3	62.3	33	32.8	3	11	90	0.00	30.169 
18:50	62.1	62.1	62.1	31	31.1	5	12	90	0.00	30.169 
18:55	62.0	62.0	62.0	31	31.0	5	13	90	0.00	30.169 
19:00	61.8	61.8	61.8	31	30.8	4	7	112	0.00	30.171 
19:05	61.6	61.6	61.6	31	30.7	3	7	90	0.00	30.171 
19:10	61.3	61.3	61.3	32	31.2	3	9	90	0.00	30.171 
19:15	61.0	61.0	61.0	31	30.2	3	9	112	0.00	30.168 
19:20	60.7	60.7	60.7	29	28.3	4	12	90	0.00	30.168 
19:25	60.4	60.4	60.4	32	30.4	3	7	90	0.00	30.168 
19:30	59.9	59.9	59.9	30	28.4	3	8	90	0.00	30.156 
19:35	59.5	59.5	59.5	31	28.8	4	12	90	0.00	30.156 
19:40	59.2	59.2	59.2	32	29.4	4	9	90	0.00	30.156 
19:45	58.9	58.9	58.9	33	29.9	4	9	90	0.00	30.148 
19:50	58.6	58.6	58.6	33	29.6	5	11	90	0.00	30.148 
19:55	58.3	58.3	58.3	32	28.6	3	7	90	0.00	30.148 
20:00	58.1	58.1	58.1	34	29.9	1	4	90	0.00	30.183 
20:05	57.8	57.8	57.8	32	28.1	2	6	90	0.00	30.183 
20:10	57.5	57.5	57.5	32	27.9	3	5	90	0.00	30.183 
20:15	57.5	57.5	57.5	33	28.6	3	8	90	0.00	30.182 
20:20	57.2	57.2	57.2	33	28.4	2	6	112	0.00	30.182 
20:25	57.0	57.0	57.0	31	26.7	3	6	90	0.00	30.182 
20:30	56.7	56.7	56.7	32	27.2	2	5	90	0.00	30.182 
20:35	56.5	56.5	56.5	31	26.2	2	5	90	0.00	30.182 
20:40	56.3	56.3	56.3	30	25.3	2	5	112	0.00	30.182 
20:45	56.2	56.2	56.2	29	24.4	3	6	90	0.00	30.178 
20:50	56.0	56.0	56.0	31	25.8	2	5	90	0.00	30.178 
20:55	55.9	55.9	55.9	30	24.9	2	6	90	0.00	30.178 
21:00	55.6	55.6	55.6	28	23.0	3	9	90	0.00	30.177 
21:05	55.4	55.4	55.4	28	22.8	2	5	112	0.00	30.177 
21:10	55.3	55.3	55.3	27	21.9	3	7	90	0.00	30.177 
21:15	55.1	55.1	55.1	25	19.9	4	9	112	0.00	30.176 
21:20	55.0	55.0	55.0	24	18.9	3	9	90	0.00	30.176 
21:25	54.8	54.8	54.8	23	17.7	4	9	90	0.00	30.176 
21:30	54.7	54.7	54.7	23	17.6	4	9	90	0.00	30.174 
21:35	54.5	54.5	54.5	24	18.5	4	8	90	0.00	30.174 
21:40	54.2	54.2	54.2	24	18.2	5	11	90	0.00	30.174 
21:45	54.1	54.1	54.1	23	17.1	5	10	90	0.00	30.166 
21:50	53.9	53.9	53.9	23	17.0	3	9	90	0.00	30.166 
21:55	53.8	53.8	53.8	23	16.9	4	9	90	0.00	30.166 
22:00	53.5	53.5	53.5	23	16.6	4	10	90	0.00	30.170 
22:05	53.3	53.3	53.3	23	16.5	3	7	90	0.00	30.170 
22:10	53.3	53.3	53.3	23	16.5	4	8	90	0.00	30.170 
22:15	53.2	53.2	53.2	24	17.4	4	10	90	0.00	30.168 
22:20	53.1	53.1	53.1	24	17.3	4	10	68	0.00	30.168 
22:25	52.9	52.9	52.9	24	17.1	3	10	90	0.00	30.168 
22:30	52.9	52.9	52.9	24	17.1	4	7	90	0.00	30.169 
22:35	52.8	52.8	52.8	24	17.0	3	9	90	0.00	30.169 
22:40	52.8	52.8	52.8	25	18.0	3	9	90	0.00	30.169 
22:45	52.6	52.6	52.6	25	17.8	3	8	90	0.00	30.163 
22:50	52.6	52.6	52.6	26	18.7	2	6	90	0.00	30.163 
22:55	52.6	52.6	52.6	24	16.9	2	5	90	0.00	30.163 
23:00	52.6	52.6	52.6	25	17.8	4	11	90	0.00	30.164 
23:05	52.6	52.6	52.6	25	17.8	3	6	90	0.00	30.164 
23:10	52.6	52.6	52.6	25	17.8	3	6	112	0.00	30.164 
23:15	52.6	52.6	52.6	26	18.7	3	7	90	0.00	30.163 
23:20	52.6	52.6	52.6	26	18.7	2	6	112	0.00	30.163 
23:25	52.6	52.6	52.6	26	18.7	2	6	90	0.00	30.163 
23:30	52.6	52.6	52.6	27	19.6	2	6	90	0.00	30.160 
23:35	52.6	52.6	52.6	28	20.4	2	4	112	0.00	30.160 
23:40	52.6	52.6	52.6	28	20.4	2	5	112	0.00	30.160 
23:45	52.6	52.6	52.6	28	20.4	2	5	90	0.00	30.159 
23:50	52.5	52.5	52.5	27	19.5	3	5	90	0.00	30.159 
23:55	52.5	52.5	52.5	27	19.5	2	9	90	0.00	30.159 

CoCoRaHS
IN-AL-39
A2 Web Hosting
Creative Commons License
GoDaddy
search engine by freefind advanced

loaded 2018-11-15 18:35:34 • last modified 2010-11-18 10:43:29
Privacy PolicyDisclaimer
• wx.awcolley.com is powered by PmWiki v.2002016 •
• all content (unless otherwise noted) © 2018 A W Colley